Time;durP1;ratioP1;P1;durP2;ratioP2;P2;SDS_P1;SDS_P2;PMS_P1;PMS_P2;Temp;Humidity;BMP_temperature;BMP_pressure;BME280_temperature;BME280_humidity;BME280_pressure;Samples;Min_cycle;Max_cycle;Signal;HPM_P1;HPM_P2
2023/09/20 00:01:03;;;;;;;5.10;2.60;;;18.40;99.90;;;;;;5048605;28;20519;-75
2023/09/20 00:03:31;;;;;;;5.30;1.90;;;18.40;99.90;;;;;;5046824;28;20442;-76
2023/09/20 00:06:01;;;;;;;5.60;1.70;;;18.40;99.90;;;;;;5045845;28;20458;-76
2023/09/20 00:08:29;;;;;;;5.77;2.33;;;18.40;99.90;;;;;;5040108;28;20443;-76
2023/09/20 00:10:58;;;;;;;5.50;2.27;;;18.40;99.90;;;;;;5041744;28;20442;-75
2023/09/20 00:13:24;;;;;;;5.20;2.27;;;18.40;99.90;;;;;;5046245;28;20456;-75
2023/09/20 00:15:55;;;;;;;8.43;3.63;;;18.40;99.90;;;;;;5052327;28;20459;-77
2023/09/20 00:18:22;;;;;;;6.20;2.20;;;18.40;99.90;;;;;;5050574;28;20447;-76
2023/09/20 00:20:49;;;;;;;5.43;1.93;;;18.40;99.90;;;;;;5045771;28;20478;-76
2023/09/20 00:23:20;;;;;;;7.70;1.87;;;18.40;99.90;;;;;;5048640;28;20477;-77
2023/09/20 00:25:47;;;;;;;6.57;2.70;;;18.40;99.90;;;;;;5047305;28;20887;-75
2023/09/20 00:28:17;;;;;;;9.20;1.80;;;18.40;99.90;;;;;;5054727;28;20504;-76
2023/09/20 00:30:45;;;;;;;5.53;2.50;;;18.40;99.90;;;;;;5050730;28;20480;-76
2023/09/20 00:33:12;;;;;;;6.37;2.07;;;18.40;99.90;;;;;;5056299;28;20444;-76
2023/09/20 00:35:40;;;;;;;9.43;2.57;;;18.40;99.90;;;;;;5042271;28;20534;-75
2023/09/20 00:38:08;;;;;;;6.00;2.43;;;18.40;99.90;;;;;;5052076;28;20500;-76
2023/09/20 00:40:37;;;;;;;10.63;2.17;;;18.40;99.90;;;;;;5059445;28;20575;-78
2023/09/20 00:43:06;;;;;;;5.50;1.90;;;18.40;99.90;;;;;;5056201;28;20990;-76
2023/09/20 00:45:38;;;;;;;3.93;2.17;;;18.40;99.90;;;;;;5050905;28;20480;-75
2023/09/20 00:48:08;;;;;;;3.03;1.73;;;18.40;99.90;;;;;;5052985;28;20835;-77
2023/09/20 00:50:37;;;;;;;7.83;2.00;;;18.40;99.90;;;;;;5049978;28;20809;-76
2023/09/20 00:53:07;;;;;;;8.97;2.53;;;18.40;99.90;;;;;;5051676;28;20446;-77
2023/09/20 00:55:36;;;;;;;7.37;2.80;;;18.40;99.90;;;;;;5052400;28;20809;-78
2023/09/20 00:58:07;;;;;;;6.10;2.53;;;18.30;99.90;;;;;;5050219;28;20442;-75
2023/09/20 01:00:40;;;;;;;5.80;1.90;;;18.40;99.90;;;;;;5054235;28;20481;-77
2023/09/20 01:03:07;;;;;;;4.43;1.80;;;18.40;99.90;;;;;;5050078;28;20438;-74
2023/09/20 01:05:36;;;;;;;4.00;1.90;;;18.40;99.90;;;;;;5051662;28;20465;-76
2023/09/20 01:08:04;;;;;;;3.93;1.93;;;18.40;99.90;;;;;;5050033;28;20447;-74
2023/09/20 01:10:33;;;;;;;7.53;2.17;;;18.40;99.90;;;;;;5050534;28;20438;-76
2023/09/20 01:13:02;;;;;;;5.03;2.40;;;18.40;99.90;;;;;;5050477;28;20426;-77
2023/09/20 01:15:31;;;;;;;7.40;2.67;;;18.40;99.90;;;;;;5050283;28;20786;-76
2023/09/20 01:18:01;;;;;;;4.93;2.30;;;18.40;99.90;;;;;;5042783;28;20442;-75
2023/09/20 01:20:31;;;;;;;8.03;2.73;;;18.50;99.90;;;;;;5052064;28;20482;-78
2023/09/20 01:23:00;;;;;;;4.97;1.80;;;18.50;99.90;;;;;;5050843;28;20450;-77
2023/09/20 01:25:30;;;;;;;4.23;2.33;;;18.50;99.90;;;;;;5046449;28;20454;-75
2023/09/20 01:27:59;;;;;;;9.13;1.93;;;18.50;99.90;;;;;;5037380;28;20479;-75
2023/09/20 01:30:29;;;;;;;5.53;2.17;;;18.40;99.90;;;;;;5047200;28;20453;-76
2023/09/20 01:32:57;;;;;;;6.33;2.07;;;18.40;99.90;;;;;;5048715;28;20878;-76
2023/09/20 01:35:26;;;;;;;5.17;1.70;;;18.50;99.90;;;;;;5044296;28;20549;-75
2023/09/20 01:37:53;;;;;;;5.93;1.87;;;18.40;99.90;;;;;;5048509;28;20485;-77
2023/09/20 01:40:25;;;;;;;4.43;1.70;;;18.40;99.90;;;;;;5047950;28;20481;-76
2023/09/20 01:42:53;;;;;;;4.17;2.47;;;18.40;99.90;;;;;;5050312;28;20469;-76
2023/09/20 01:45:22;;;;;;;8.40;2.80;;;18.40;99.90;;;;;;5045121;28;20446;-77
2023/09/20 01:47:51;;;;;;;9.73;2.70;;;18.40;99.90;;;;;;5050887;28;20446;-75
2023/09/20 01:50:20;;;;;;;7.17;2.40;;;18.40;99.90;;;;;;5048911;28;20451;-78
2023/09/20 01:52:48;;;;;;;5.53;2.40;;;18.40;99.90;;;;;;5053304;28;20449;-75
2023/09/20 01:55:17;;;;;;;5.33;1.97;;;18.40;99.90;;;;;;5052119;28;20446;-75
2023/09/20 01:57:46;;;;;;;4.03;2.30;;;18.40;99.90;;;;;;5046771;28;20918;-75
2023/09/20 02:00:22;;;;;;;6.93;2.67;;;18.40;99.90;;;;;;5043616;28;20994;-76
2023/09/20 02:02:50;;;;;;;7.47;2.27;;;18.40;99.90;;;;;;5047353;28;20812;-76
2023/09/20 02:05:18;;;;;;;5.70;2.10;;;18.40;99.90;;;;;;5046425;28;20447;-76
2023/09/20 02:07:49;;;;;;;8.60;2.80;;;18.50;99.90;;;;;;5046050;28;20813;-76
2023/09/20 02:10:18;;;;;;;5.63;2.70;;;18.50;99.90;;;;;;5046202;28;20465;-76
2023/09/20 02:12:47;;;;;;;7.40;2.50;;;18.50;99.90;;;;;;5046135;28;20873;-76
2023/09/20 02:15:16;;;;;;;4.07;2.23;;;18.40;99.90;;;;;;5043065;28;20442;-77
2023/09/20 02:17:43;;;;;;;5.23;2.50;;;18.50;99.90;;;;;;5050688;28;20473;-76
2023/09/20 02:20:19;;;;;;;5.60;2.10;;;18.40;99.90;;;;;;5046686;28;20438;-76
2023/09/20 02:22:46;;;;;;;8.67;2.40;;;18.40;99.90;;;;;;5043703;28;20453;-76
2023/09/20 02:25:14;;;;;;;5.93;2.00;;;18.40;99.90;;;;;;5048773;28;20456;-77
2023/09/20 02:27:43;;;;;;;7.67;2.37;;;18.50;99.90;;;;;;5051826;28;20473;-77
2023/09/20 02:30:15;;;;;;;5.10;2.40;;;18.50;99.90;;;;;;5047871;28;20494;-77
2023/09/20 02:32:42;;;;;;;5.23;2.17;;;18.50;99.90;;;;;;5051542;28;20922;-77
2023/09/20 02:35:11;;;;;;;5.80;3.40;;;18.60;99.90;;;;;;5037648;28;20944;-77
2023/09/20 02:37:40;;;;;;;10.33;2.80;;;18.50;99.90;;;;;;5042979;28;20470;-76
2023/09/20 02:40:12;;;;;;;3.67;2.23;;;18.60;99.90;;;;;;5048870;28;20560;-77
2023/09/20 02:42:44;;;;;;;4.60;2.23;;;18.60;99.90;;;;;;5049486;28;21018;-75
2023/09/20 02:45:15;;;;;;;6.70;2.87;;;18.60;99.90;;;;;;5038118;28;20889;-76
2023/09/20 02:47:43;;;;;;;6.53;2.57;;;18.60;99.90;;;;;;5049055;28;20967;-76
2023/09/20 02:50:12;;;;;;;7.30;2.50;;;18.60;99.90;;;;;;5046422;28;20826;-77
2023/09/20 02:52:39;;;;;;;5.87;2.60;;;18.60;99.90;;;;;;5044406;28;20474;-77
2023/09/20 02:55:08;;;;;;;4.70;2.00;;;18.60;99.90;;;;;;5040512;28;20803;-77
2023/09/20 02:57:36;;;;;;;3.83;2.37;;;18.60;99.90;;;;;;5037778;28;20532;-76
2023/09/20 03:00:15;;;;;;;6.13;2.10;;;18.60;99.90;;;;;;5044491;28;20498;-77
2023/09/20 03:02:45;;;;;;;3.27;1.90;;;18.60;99.90;;;;;;5044127;28;20474;-76
2023/09/20 03:05:16;;;;;;;6.50;2.10;;;18.70;99.90;;;;;;5047172;28;20458;-77
2023/09/20 03:07:44;;;;;;;9.73;3.07;;;18.60;99.90;;;;;;5048419;28;20494;-76
2023/09/20 03:10:13;;;;;;;4.93;2.73;;;18.70;99.90;;;;;;5051566;28;20783;-77
2023/09/20 03:12:41;;;;;;;5.70;2.03;;;18.70;99.90;;;;;;5053212;28;21016;-77
2023/09/20 03:15:12;;;;;;;4.80;2.27;;;18.70;99.90;;;;;;5054252;28;20450;-76
2023/09/20 03:17:40;;;;;;;5.03;2.60;;;18.70;99.90;;;;;;5046109;28;20478;-77
2023/09/20 03:20:13;;;;;;;7.10;3.53;;;18.70;99.90;;;;;;5049655;28;20933;-77
2023/09/20 03:22:40;;;;;;;6.30;2.20;;;18.80;99.90;;;;;;5054302;28;20489;-77
2023/09/20 03:25:11;;;;;;;6.27;2.43;;;18.70;99.90;;;;;;5042184;28;20450;-78
2023/09/20 03:27:40;;;;;;;5.37;2.10;;;18.70;99.90;;;;;;5047857;28;20488;-76
2023/09/20 03:30:11;;;;;;;4.93;3.03;;;18.80;99.90;;;;;;5048436;28;20502;-76
2023/09/20 03:32:39;;;;;;;5.03;2.50;;;18.70;99.90;;;;;;5052752;28;20442;-76
2023/09/20 03:35:09;;;;;;;4.53;2.70;;;18.80;99.90;;;;;;5044889;28;20451;-77
2023/09/20 03:37:37;;;;;;;7.07;2.67;;;18.80;99.90;;;;;;5049894;28;20469;-77
2023/09/20 03:40:06;;;;;;;6.30;2.30;;;18.80;99.90;;;;;;5044409;28;20446;-76
2023/09/20 03:42:33;;;;;;;4.53;2.10;;;18.80;99.90;;;;;;5053440;28;20568;-79
2023/09/20 03:45:00;;;;;;;6.20;2.47;;;18.80;99.90;;;;;;5052823;28;20478;-73
2023/09/20 03:47:28;;;;;;;8.10;4.10;;;18.80;99.90;;;;;;5054150;28;20550;-76
2023/09/20 03:49:55;;;;;;;4.97;2.13;;;18.80;99.90;;;;;;5053332;28;20489;-75
2023/09/20 03:52:23;;;;;;;6.90;2.50;;;18.80;99.90;;;;;;5052923;28;20434;-76
2023/09/20 03:54:51;;;;;;;7.00;2.90;;;18.80;99.90;;;;;;5054260;28;20537;-76
2023/09/20 03:57:19;;;;;;;4.50;2.40;;;18.90;99.90;;;;;;5052967;28;20551;-76
2023/09/20 03:59:47;;;;;;;5.10;2.30;;;18.90;99.90;;;;;;5051286;28;20508;-77
2023/09/20 04:02:14;;;;;;;6.83;2.57;;;18.90;99.90;;;;;;5052276;28;20991;-76
2023/09/20 04:04:41;;;;;;;5.07;2.40;;;18.90;99.90;;;;;;5053472;28;20452;-76
2023/09/20 04:07:09;;;;;;;4.00;1.83;;;18.90;99.90;;;;;;5051824;28;20560;-75
2023/09/20 04:09:37;;;;;;;5.67;2.60;;;18.90;99.90;;;;;;5045664;28;20477;-76
2023/09/20 04:12:04;;;;;;;6.83;3.00;;;18.90;99.90;;;;;;5052843;28;20462;-77
2023/09/20 04:14:32;;;;;;;6.87;2.27;;;18.90;99.90;;;;;;5052776;28;20444;-76
2023/09/20 04:16:59;;;;;;;6.27;2.30;;;18.90;99.90;;;;;;5045973;28;20831;-76
2023/09/20 04:19:27;;;;;;;5.90;2.27;;;18.90;99.90;;;;;;5048340;28;20449;-76
2023/09/20 04:21:55;;;;;;;5.87;3.80;;;18.80;99.90;;;;;;5052113;28;20553;-74
2023/09/20 04:24:22;;;;;;;7.33;2.70;;;18.80;99.90;;;;;;5049284;28;20908;-75
2023/09/20 04:26:51;;;;;;;9.23;3.40;;;18.80;99.90;;;;;;5050458;28;20568;-75
2023/09/20 04:29:20;;;;;;;6.13;3.27;;;18.70;99.90;;;;;;5051146;28;20519;-76
2023/09/20 04:31:49;;;;;;;7.80;2.97;;;18.70;99.90;;;;;;5048388;28;20605;-76
2023/09/20 04:34:16;;;;;;;7.80;3.30;;;18.70;99.90;;;;;;5051642;28;20798;-80
2023/09/20 04:36:45;;;;;;;6.43;2.50;;;18.70;99.90;;;;;;5049997;28;20466;-76
2023/09/20 04:39:14;;;;;;;8.30;3.40;;;18.70;99.90;;;;;;5053325;28;20445;-77
2023/09/20 04:41:41;;;;;;;5.67;2.37;;;18.70;99.90;;;;;;5048351;28;20494;-77
2023/09/20 04:44:10;;;;;;;6.47;2.07;;;18.70;99.90;;;;;;5043191;28;20459;-75
2023/09/20 04:46:39;;;;;;;6.70;3.43;;;18.70;99.90;;;;;;5043026;28;20989;-77
2023/09/20 04:49:07;;;;;;;4.60;2.90;;;18.70;99.90;;;;;;5044995;28;20458;-76
2023/09/20 04:51:34;;;;;;;5.90;2.80;;;18.70;99.90;;;;;;5052080;28;20529;-76
2023/09/20 04:54:04;;;;;;;5.57;3.10;;;18.80;99.90;;;;;;5047374;28;20828;-78
2023/09/20 04:56:32;;;;;;;4.33;2.63;;;18.70;99.90;;;;;;5050235;28;20477;-78
2023/09/20 04:58:59;;;;;;;8.13;2.80;;;18.70;99.90;;;;;;5050392;28;20473;-77
2023/09/20 05:01:29;;;;;;;7.53;3.90;;;18.70;99.90;;;;;;5048848;28;20477;-77
2023/09/20 05:03:56;;;;;;;5.10;2.50;;;18.60;99.90;;;;;;5047772;28;20442;-77
2023/09/20 05:06:23;;;;;;;5.63;3.10;;;18.60;99.90;;;;;;5049860;28;20485;-75
2023/09/20 05:08:50;;;;;;;6.77;2.73;;;18.60;99.90;;;;;;5047306;28;20533;-75
2023/09/20 05:11:18;;;;;;;8.23;2.83;;;18.60;99.90;;;;;;5043311;28;20461;-77
2023/09/20 05:13:46;;;;;;;8.93;3.30;;;18.50;99.90;;;;;;5049883;28;20450;-76
2023/09/20 05:16:12;;;;;;;6.90;3.03;;;18.50;99.90;;;;;;5045365;28;20489;-78
2023/09/20 05:18:41;;;;;;;5.83;2.90;;;18.50;99.90;;;;;;5040678;28;20435;-77
2023/09/20 05:21:09;;;;;;;8.80;3.90;;;18.50;99.90;;;;;;5047338;28;20445;-78
2023/09/20 05:23:36;;;;;;;8.23;3.30;;;18.40;99.90;;;;;;5049890;28;20430;-77
2023/09/20 05:26:04;;;;;;;5.43;3.10;;;18.40;99.90;;;;;;5047116;28;20497;-78
2023/09/20 05:28:31;;;;;;;7.30;2.47;;;18.40;99.90;;;;;;5048326;28;20545;-76
2023/09/20 05:31:00;;;;;;;7.60;3.03;;;18.40;99.90;;;;;;5045131;28;20442;-77
2023/09/20 05:33:27;;;;;;;6.60;3.00;;;18.40;99.90;;;;;;5049930;28;20573;-76
2023/09/20 05:35:56;;;;;;;4.77;2.10;;;18.40;99.90;;;;;;5045957;28;20453;-77
2023/09/20 05:38:24;;;;;;;8.73;2.87;;;18.40;99.90;;;;;;5047428;28;20650;-77
2023/09/20 05:40:51;;;;;;;7.03;2.97;;;18.40;99.90;;;;;;5050916;28;20500;-77
2023/09/20 05:43:18;;;;;;;4.40;2.50;;;18.40;99.90;;;;;;5051916;28;20543;-77
2023/09/20 05:45:45;;;;;;;12.53;2.77;;;18.50;99.90;;;;;;5046436;28;20544;-77
2023/09/20 05:48:12;;;;;;;5.57;2.50;;;18.50;99.90;;;;;;5053128;28;20995;-78
2023/09/20 05:50:40;;;;;;;3.90;2.70;;;18.60;99.90;;;;;;5050263;28;20512;-78
2023/09/20 05:53:11;;;;;;;6.37;3.43;;;18.60;99.90;;;;;;5046711;28;20476;-77
2023/09/20 05:55:38;;;;;;;5.67;2.80;;;18.70;99.90;;;;;;5048969;28;20467;-76
2023/09/20 05:58:05;;;;;;;8.17;3.50;;;18.60;99.90;;;;;;5053017;28;20442;-77
2023/09/20 06:00:33;;;;;;;6.53;2.93;;;18.60;99.90;;;;;;5050961;28;20450;-78
2023/09/20 06:02:59;;;;;;;4.50;3.30;;;18.70;99.90;;;;;;5042380;28;20981;-76
2023/09/20 06:05:27;;;;;;;10.33;3.93;;;18.70;99.90;;;;;;5049168;28;20529;-78
2023/09/20 06:07:55;;;;;;;6.70;2.67;;;18.80;99.90;;;;;;5052404;28;20438;-75
2023/09/20 06:10:23;;;;;;;5.63;2.70;;;19.00;99.90;;;;;;5052815;28;20553;-77
2023/09/20 06:12:50;;;;;;;4.50;2.77;;;19.00;99.90;;;;;;5049090;28;20450;-77
2023/09/20 06:15:19;;;;;;;9.90;2.73;;;19.00;99.90;;;;;;5052979;28;20452;-76
2023/09/20 06:17:47;;;;;;;5.23;3.17;;;18.90;99.90;;;;;;5046980;28;20497;-75
2023/09/20 06:20:19;;;;;;;6.03;3.40;;;18.90;99.90;;;;;;5048680;28;20447;-77
2023/09/20 06:22:48;;;;;;;8.00;2.50;;;19.00;99.90;;;;;;5056044;28;21033;-77
2023/09/20 06:25:16;;;;;;;6.00;2.60;;;19.20;99.90;;;;;;5052916;28;20455;-76
2023/09/20 06:27:44;;;;;;;6.80;2.77;;;19.50;99.90;;;;;;5051012;28;20465;-77
2023/09/20 06:30:14;;;;;;;6.40;4.00;;;19.90;99.90;;;;;;5041499;28;20532;-77
2023/09/20 06:32:42;;;;;;;9.10;3.53;;;20.10;99.90;;;;;;5044933;28;20500;-75
2023/09/20 06:35:10;;;;;;;8.83;2.83;;;20.10;99.90;;;;;;5046555;28;20458;-76
2023/09/20 06:37:38;;;;;;;10.90;3.90;;;19.90;99.90;;;;;;5056501;28;20458;-76
2023/09/20 06:40:15;;;;;;;8.53;3.50;;;19.70;99.90;;;;;;5051418;28;20466;-77
2023/09/20 06:42:42;;;;;;;6.33;2.20;;;19.70;99.90;;;;;;5058355;28;20477;-75
2023/09/20 06:45:12;;;;;;;5.40;3.10;;;19.90;99.90;;;;;;5044230;28;20541;-75
2023/09/20 06:47:39;;;;;;;6.00;2.70;;;20.10;99.90;;;;;;5042077;28;20524;-75
2023/09/20 06:50:07;;;;;;;7.90;3.47;;;20.40;99.90;;;;;;5049834;28;20449;-73
2023/09/20 06:52:34;;;;;;;6.73;2.30;;;20.60;99.90;;;;;;5042997;28;20457;-71
2023/09/20 06:55:11;;;;;;;5.33;2.93;;;20.70;99.90;;;;;;5050840;28;20589;-79
2023/09/20 06:57:39;;;;;;;8.20;3.37;;;20.60;99.90;;;;;;5052074;28;20955;-77
2023/09/20 07:00:22;;;;;;;8.17;3.13;;;20.50;99.90;;;;;;5045537;28;20442;-75
2023/09/20 07:02:51;;;;;;;4.10;2.30;;;20.20;99.90;;;;;;5049757;28;20568;-78
2023/09/20 07:05:20;;;;;;;8.27;2.77;;;20.40;99.90;;;;;;5051495;28;20457;-77
2023/09/20 07:07:48;;;;;;;7.93;3.53;;;20.40;99.90;;;;;;5049516;28;20545;-77
2023/09/20 07:10:17;;;;;;;6.83;2.20;;;20.30;99.90;;;;;;5048350;28;20445;-77
2023/09/20 07:12:45;;;;;;;7.83;3.23;;;20.20;99.90;;;;;;5052297;28;20484;-76
2023/09/20 07:15:18;;;;;;;8.17;3.67;;;20.30;99.90;;;;;;5043474;28;20450;-77
2023/09/20 07:17:58;;;;;;;8.03;2.80;;;20.40;99.90;;;;;;5051419;28;20527;-77
2023/09/20 07:20:25;;;;;;;6.40;2.80;;;20.70;99.90;;;;;;5055472;28;20555;-77
2023/09/20 07:22:53;;;;;;;8.50;3.00;;;21.00;99.90;;;;;;5046930;28;20482;-77
2023/09/20 07:25:21;;;;;;;8.63;3.17;;;21.40;99.90;;;;;;5043622;28;20482;-78
2023/09/20 07:27:49;;;;;;;6.10;2.63;;;21.60;99.90;;;;;;5046933;28;20485;-78
2023/09/20 07:30:19;;;;;;;5.13;2.27;;;21.90;99.90;;;;;;5049160;28;20474;-78
2023/09/20 07:32:47;;;;;;;4.37;2.40;;;22.50;99.90;;;;;;5051815;28;20499;-77
2023/09/20 07:35:27;;;;;;;6.33;3.00;;;23.40;99.90;;;;;;5051465;28;20441;-77
2023/09/20 07:37:58;;;;;;;4.27;2.83;;;24.60;98.90;;;;;;5044285;28;20522;-77
2023/09/20 07:40:29;;;;;;;4.20;2.87;;;25.40;95.90;;;;;;5039956;28;20531;-76
2023/09/20 07:43:01;;;;;;;8.60;3.23;;;26.30;94.50;;;;;;5047730;28;20565;-77
2023/09/20 07:45:37;;;;;;;6.03;3.07;;;26.40;93.70;;;;;;5053084;28;20489;-77
2023/09/20 07:48:12;;;;;;;6.93;2.87;;;26.30;93.80;;;;;;5050361;28;20443;-76
2023/09/20 07:50:42;;;;;;;6.40;3.87;;;25.40;94.40;;;;;;5050530;28;20468;-77
2023/09/20 07:53:11;;;;;;;15.10;4.83;;;25.50;94.40;;;;;;5054703;28;20514;-77
2023/09/20 07:55:45;;;;;;;9.30;3.20;;;25.00;94.80;;;;;;5051832;28;21003;-77
2023/09/20 07:58:13;;;;;;;6.93;3.00;;;24.80;95.20;;;;;;5046876;28;20450;-76
2023/09/20 08:00:44;;;;;;;8.90;3.70;;;24.90;95.30;;;;;;5051061;28;20443;-75
2023/09/20 08:03:11;;;;;;;10.27;4.13;;;24.50;95.60;;;;;;5045626;28;20519;-77
2023/09/20 08:05:39;;;;;;;15.57;3.57;;;23.50;96.80;;;;;;5042522;28;20499;-74
2023/09/20 08:08:07;;;;;;;5.73;2.93;;;23.50;97.40;;;;;;5053859;28;20448;-75
2023/09/20 08:10:36;;;;;;;9.77;3.63;;;23.80;97.40;;;;;;5045884;28;20471;-75
2023/09/20 08:13:05;;;;;;;8.40;3.00;;;24.40;96.60;;;;;;5055086;28;21001;-76
2023/09/20 08:15:32;;;;;;;13.30;3.73;;;25.00;95.70;;;;;;5050683;28;20940;-77
2023/09/20 08:20:45;;;;;;;7.83;3.07;;;26.80;93.30;;;;;;5046286;28;20441;-75
2023/09/20 09:01:46;;;;;;;13.90;3.73;;;22.60;99.50;;;;;;5047186;28;20479;-77
2023/09/20 09:04:17;;;;;;;6.60;3.03;;;22.70;99.90;;;;;;5048385;28;20842;-76
2023/09/20 09:06:46;;;;;;;8.63;2.73;;;22.60;99.90;;;;;;5047580;28;20506;-77
2023/09/20 09:09:14;;;;;;;9.20;3.27;;;22.50;99.90;;;;;;5049718;28;20460;-77
2023/09/20 09:11:41;;;;;;;11.03;3.20;;;22.40;99.90;;;;;;5052324;28;20500;-77
2023/09/20 09:14:09;;;;;;;10.43;3.70;;;22.60;99.90;;;;;;5047518;28;20517;-77
2023/09/20 09:16:37;;;;;;;11.80;3.63;;;22.60;99.90;;;;;;5043937;28;20528;-77
2023/09/20 09:19:04;;;;;;;8.97;3.80;;;22.80;99.90;;;;;;5044281;28;20926;-76
2023/09/20 09:21:32;;;;;;;7.57;3.13;;;22.90;99.90;;;;;;5050543;28;20481;-75
2023/09/20 09:24:00;;;;;;;7.07;3.10;;;23.10;99.60;;;;;;5048848;28;20975;-76
2023/09/20 09:26:27;;;;;;;4.97;2.20;;;23.30;99.40;;;;;;5042593;28;20542;-77
2023/09/20 09:28:54;;;;;;;9.33;3.70;;;23.60;98.80;;;;;;5045409;28;20442;-74
2023/09/20 09:31:21;;;;;;;17.93;3.93;;;23.80;98.20;;;;;;5048550;28;20470;-74
2023/09/20 09:33:49;;;;;;;10.20;3.53;;;23.60;97.90;;;;;;5050947;28;20813;-74
2023/09/20 09:36:16;;;;;;;6.70;2.93;;;23.80;98.00;;;;;;5051924;28;20549;-74
2023/09/20 09:38:43;;;;;;;5.33;2.53;;;24.00;97.80;;;;;;5051850;28;20442;-75
2023/09/20 09:41:11;;;;;;;4.20;2.77;;;24.00;97.50;;;;;;5049680;28;20448;-74
2023/09/20 09:43:39;;;;;;;6.37;3.20;;;23.90;97.40;;;;;;5049516;28;20560;-73
2023/09/20 09:46:08;;;;;;;6.17;3.53;;;23.70;97.50;;;;;;5049369;28;20540;-73
2023/09/20 09:48:37;;;;;;;8.03;3.17;;;24.20;97.20;;;;;;5052977;28;20476;-75
2023/09/20 09:51:06;;;;;;;8.20;3.27;;;24.20;96.90;;;;;;5046820;28;20815;-75
2023/09/20 09:53:36;;;;;;;5.60;2.87;;;24.20;96.90;;;;;;5040636;28;20863;-75
2023/09/20 09:56:07;;;;;;;4.27;2.93;;;24.00;97.20;;;;;;5052639;28;20477;-75
2023/09/20 09:58:36;;;;;;;12.80;3.73;;;23.50;97.30;;;;;;5045158;28;20516;-74
2023/09/20 10:01:07;;;;;;;9.80;3.27;;;23.10;97.80;;;;;;5050505;28;20474;-75
2023/09/20 10:03:40;;;;;;;5.03;2.60;;;23.10;98.30;;;;;;5050604;28;20551;-74
2023/09/20 10:06:12;;;;;;;9.20;3.23;;;23.30;98.20;;;;;;5046980;28;20470;-75
2023/09/20 10:08:40;;;;;;;3.80;2.77;;;23.60;98.10;;;;;;5043792;28;20473;-75
2023/09/20 10:11:08;;;;;;;7.13;3.40;;;24.40;97.40;;;;;;5050512;28;20441;-75
2023/09/20 10:13:38;;;;;;;10.10;2.87;;;25.00;96.20;;;;;;5045771;28;20463;-74
2023/09/20 10:16:10;;;;;;;6.90;2.90;;;25.00;95.60;;;;;;5050847;28;20467;-74
2023/09/20 10:18:56;;;;;;;7.77;3.50;;;25.50;95.50;;;;;;5041180;28;20465;-74
2023/09/20 10:21:26;;;;;;;6.97;2.77;;;25.90;94.40;;;;;;5044375;28;20496;-74
2023/09/20 10:23:59;;;;;;;5.27;3.07;;;25.30;94.50;;;;;;5042819;28;20563;-74
2023/09/20 10:26:26;;;;;;;7.27;3.40;;;25.00;95.00;;;;;;5046720;28;20567;-72
2023/09/20 10:28:58;;;;;;;8.80;4.07;;;24.10;95.00;;;;;;5046604;28;21000;-74
2023/09/20 10:31:29;;;;;;;6.00;2.90;;;23.70;96.00;;;;;;5049579;28;20464;-75
2023/09/20 10:33:57;;;;;;;7.20;3.60;;;23.60;96.30;;;;;;5042376;28;20447;-75
2023/09/20 10:36:25;;;;;;;5.43;3.20;;;23.80;96.40;;;;;;5049097;28;20853;-73
2023/09/20 10:39:16;;;;;;;5.30;3.43;;;23.70;96.80;;;;;;5041195;28;20854;-72
2023/09/20 10:41:44;;;;;;;5.93;3.20;;;23.50;97.00;;;;;;5046130;28;20439;-73
2023/09/20 10:44:30;;;;;;;4.07;3.20;;;23.70;97.40;;;;;;5052148;28;20565;-74
2023/09/20 10:46:59;;;;;;;3.53;2.80;;;24.20;96.70;;;;;;5048553;28;20812;-75
2023/09/20 10:49:49;;;;;;;3.77;2.80;;;24.00;96.40;;;;;;5048313;28;20526;-75
2023/09/20 10:52:50;;;;;;;5.47;2.73;;;23.70;96.60;;;;;;5047487;28;20845;-75
2023/09/20 10:55:35;;;;;;;5.33;2.90;;;23.80;96.80;;;;;;5047072;28;20477;-73
2023/09/20 10:58:02;;;;;;;5.10;2.73;;;24.00;97.00;;;;;;5040050;28;20442;-75
2023/09/20 11:00:34;;;;;;;6.13;3.10;;;24.00;96.80;;;;;;5046667;28;20446;-74
2023/09/20 11:03:06;;;;;;;3.70;3.30;;;23.90;96.90;;;;;;5049319;28;20453;-73
2023/09/20 11:05:33;;;;;;;5.40;3.63;;;23.70;96.80;;;;;;5038842;28;20481;-76
2023/09/20 11:08:07;;;;;;;4.97;3.00;;;23.80;97.20;;;;;;5051798;28;20825;-73
2023/09/20 11:10:34;;;;;;;6.77;3.93;;;23.80;96.70;;;;;;5045464;28;20794;-74
2023/09/20 11:13:02;;;;;;;8.97;3.23;;;23.70;96.60;;;;;;5045488;28;20482;-75
2023/09/20 11:15:31;;;;;;;5.03;2.97;;;23.60;96.70;;;;;;5045702;28;20809;-75
2023/09/20 11:17:58;;;;;;;4.83;3.10;;;23.90;96.90;;;;;;5050316;28;20526;-74
2023/09/20 11:20:27;;;;;;;7.93;3.13;;;24.00;96.50;;;;;;5052889;28;20532;-74
2023/09/20 11:22:55;;;;;;;3.80;3.23;;;24.00;96.50;;;;;;5047288;28;20447;-75
2023/09/20 11:25:22;;;;;;;6.83;2.77;;;24.00;96.60;;;;;;5041745;28;20518;-74
2023/09/20 11:27:50;;;;;;;5.00;2.63;;;24.20;96.40;;;;;;5050211;28;20478;-74
2023/09/20 11:30:19;;;;;;;9.97;4.40;;;24.10;95.70;;;;;;5047027;28;20457;-73
2023/09/20 11:32:48;;;;;;;5.70;3.33;;;23.90;95.90;;;;;;5054000;28;20446;-74
2023/09/20 11:35:33;;;;;;;10.50;3.50;;;23.70;96.30;;;;;;5043062;28;20439;-75
2023/09/20 11:38:00;;;;;;;17.00;4.70;;;23.60;96.40;;;;;;5045655;28;20537;-75
2023/09/20 11:40:31;;;;;;;11.57;3.93;;;23.60;96.60;;;;;;5055161;28;20943;-75
2023/09/20 11:42:58;;;;;;;6.80;3.67;;;23.60;97.00;;;;;;5044068;28;20481;-76
2023/09/20 11:45:25;;;;;;;7.03;3.37;;;23.80;96.80;;;;;;5047153;28;20482;-73
2023/09/20 11:47:54;;;;;;;6.73;3.40;;;23.90;96.10;;;;;;5041181;28;20994;-74
2023/09/20 11:50:24;;;;;;;5.60;3.37;;;24.00;96.20;;;;;;5050327;28;20480;-74
2023/09/20 11:52:53;;;;;;;6.17;3.67;;;24.00;96.40;;;;;;5053665;28;20453;-74
2023/09/20 11:55:21;;;;;;;7.93;3.33;;;23.90;96.60;;;;;;5051453;28;20928;-74
2023/09/20 11:57:49;;;;;;;6.00;3.30;;;23.90;96.80;;;;;;5040585;28;20489;-75
2023/09/20 12:00:17;;;;;;;7.90;3.13;;;23.90;95.90;;;;;;5045502;28;20453;-73
2023/09/20 12:02:44;;;;;;;8.90;3.13;;;24.00;96.00;;;;;;5047703;28;20783;-72
2023/09/20 12:05:14;;;;;;;5.37;3.20;;;23.90;95.70;;;;;;5038510;28;20567;-74
2023/09/20 12:07:42;;;;;;;8.20;3.20;;;23.80;95.70;;;;;;5047394;28;20891;-74
2023/09/20 12:10:10;;;;;;;7.53;3.87;;;23.60;96.00;;;;;;5048338;28;20525;-75
2023/09/20 12:12:38;;;;;;;5.93;3.60;;;23.70;96.10;;;;;;5050741;28;20888;-74
2023/09/20 12:15:06;;;;;;;6.00;3.37;;;23.80;96.20;;;;;;5041627;28;20534;-75
2023/09/20 12:17:33;;;;;;;5.03;3.73;;;23.90;96.00;;;;;;5041421;28;20498;-75
2023/09/20 12:20:04;;;;;;;6.30;3.60;;;24.00;95.40;;;;;;5048523;28;20431;-75
2023/09/20 12:22:32;;;;;;;3.93;2.90;;;24.10;95.20;;;;;;5052217;28;20454;-75
2023/09/20 12:25:00;;;;;;;4.90;3.20;;;24.00;95.10;;;;;;5043543;28;20826;-74
2023/09/20 12:27:27;;;;;;;4.27;3.33;;;24.00;95.20;;;;;;5048968;28;20550;-75
2023/09/20 12:29:54;;;;;;;5.33;3.20;;;24.20;95.30;;;;;;5054126;28;20446;-76
2023/09/20 12:32:21;;;;;;;5.90;3.67;;;24.30;95.10;;;;;;5049661;28;20925;-75
2023/09/20 12:34:48;;;;;;;5.70;3.30;;;24.20;94.60;;;;;;5044092;28;20525;-75
2023/09/20 12:37:19;;;;;;;4.73;3.23;;;24.30;94.80;;;;;;5046049;28;20500;-74
2023/09/20 12:39:47;;;;;;;3.70;2.80;;;24.20;94.90;;;;;;5048136;28;20438;-75
2023/09/20 12:42:14;;;;;;;3.33;2.50;;;24.20;95.10;;;;;;5053101;28;20807;-75
2023/09/20 12:44:42;;;;;;;5.80;3.90;;;24.10;95.30;;;;;;5053530;28;20558;-74
2023/09/20 12:47:09;;;;;;;4.13;2.93;;;24.20;95.30;;;;;;5049503;28;20557;-76
2023/09/20 12:49:37;;;;;;;3.43;2.60;;;24.20;95.30;;;;;;5052957;28;20808;-75
2023/09/20 12:52:05;;;;;;;4.00;3.03;;;24.10;95.50;;;;;;5048888;28;20512;-74
2023/09/20 12:54:32;;;;;;;4.60;2.77;;;24.10;95.80;;;;;;5045037;28;20535;-75
2023/09/20 12:57:00;;;;;;;8.00;4.87;;;24.10;95.50;;;;;;5048280;28;20485;-75
2023/09/20 12:59:27;;;;;;;4.60;3.60;;;24.20;95.40;;;;;;5049815;28;20444;-74
2023/09/20 13:01:55;;;;;;;2.83;2.20;;;24.10;95.20;;;;;;5047527;28;20438;-74
2023/09/20 13:04:24;;;;;;;6.07;2.53;;;24.00;95.10;;;;;;5051299;28;20477;-76
2023/09/20 13:06:55;;;;;;;4.67;2.57;;;24.00;95.50;;;;;;5052250;28;20809;-75
2023/09/20 13:09:22;;;;;;;8.13;3.63;;;24.00;95.40;;;;;;5048165;28;20455;-74
2023/09/20 13:11:51;;;;;;;6.17;2.70;;;23.90;95.10;;;;;;5038061;28;20439;-75
2023/09/20 13:14:21;;;;;;;5.07;2.87;;;23.90;95.40;;;;;;5040878;28;20447;-73
2023/09/20 13:16:49;;;;;;;5.80;2.40;;;23.90;95.20;;;;;;5044199;28;20481;-74
2023/09/20 13:19:16;;;;;;;5.83;3.27;;;23.90;95.30;;;;;;5052434;28;20485;-75
2023/09/20 13:21:45;;;;;;;4.47;3.13;;;23.90;95.00;;;;;;5042551;28;20447;-76
2023/09/20 13:24:12;;;;;;;5.40;2.60;;;23.70;95.00;;;;;;5043279;28;20470;-74
2023/09/20 13:26:40;;;;;;;7.17;4.17;;;23.80;95.00;;;;;;5051012;28;20767;-77
2023/09/20 13:29:07;;;;;;;4.30;2.70;;;24.00;94.90;;;;;;5040672;28;20537;-76
2023/09/20 13:31:36;;;;;;;4.00;2.53;;;24.00;94.80;;;;;;5047170;28;20446;-77
2023/09/20 13:34:04;;;;;;;4.40;4.00;;;24.00;94.90;;;;;;5049070;28;20442;-76
2023/09/20 13:36:32;;;;;;;3.50;2.53;;;24.00;94.90;;;;;;5049665;28;20844;-77